Time;durP1;ratioP1;P1;durP2;ratioP2;P2;SDS_P1;SDS_P2;PMS_P1;PMS_P2;Temp;Humidity;BMP_temperature;BMP_pressure;BME280_temperature;BME280_humidity;BME280_pressure;Samples;Min_cycle;Max_cycle;Signal;HPM_P1;HPM_P2
2023/08/14 00:00:43;;;;;;;5.85;2.50;;;16.20;99.90;;;;;;4241375;28;20036;-79
2023/08/14 00:02:44;;;;;;;4.30;2.15;;;16.20;99.90;;;;;;4250418;28;20057;-80
2023/08/14 00:04:46;;;;;;;5.47;3.00;;;16.20;99.90;;;;;;4237433;28;20054;-80
2023/08/14 00:06:46;;;;;;;5.70;2.58;;;16.20;99.90;;;;;;4230036;28;20043;-80
2023/08/14 00:08:47;;;;;;;4.32;2.28;;;17.20;99.90;;;;;;4213233;28;20059;-80
2023/08/14 00:10:48;;;;;;;4.43;2.30;;;16.20;99.90;;;;;;4230900;28;20112;-80
2023/08/14 00:12:48;;;;;;;4.55;2.15;;;16.20;99.90;;;;;;4230864;28;20112;-80
2023/08/14 00:14:49;;;;;;;2.90;1.83;;;16.10;99.90;;;;;;4232582;28;20042;-79
2023/08/14 00:16:50;;;;;;;4.60;2.45;;;16.10;99.90;;;;;;4230673;28;20044;-79
2023/08/14 00:18:53;;;;;;;6.35;2.35;;;16.10;99.90;;;;;;4235436;28;20063;-80
2023/08/14 00:20:53;;;;;;;2.67;1.80;;;16.10;99.90;;;;;;4231310;28;20096;-80
2023/08/14 00:22:54;;;;;;;4.03;2.00;;;16.10;99.90;;;;;;4230820;28;20048;-80
2023/08/14 00:24:55;;;;;;;4.45;2.45;;;16.10;99.90;;;;;;4229529;28;20051;-80
2023/08/14 00:26:55;;;;;;;5.15;2.25;;;16.00;99.90;;;;;;4230784;28;20114;-80
2023/08/14 00:28:56;;;;;;;6.85;3.05;;;16.00;99.90;;;;;;4231154;28;20100;-80
2023/08/14 00:30:57;;;;;;;4.25;2.20;;;16.00;99.90;;;;;;4231178;28;20122;-80
2023/08/14 00:32:57;;;;;;;5.32;2.33;;;15.90;99.90;;;;;;4229571;28;20100;-80
2023/08/14 00:34:58;;;;;;;6.32;2.80;;;15.90;99.90;;;;;;4230803;28;20044;-80
2023/08/14 00:37:00;;;;;;;4.20;2.30;;;15.90;99.90;;;;;;4230491;28;20407;-80
2023/08/14 00:39:03;;;;;;;7.30;2.55;;;15.90;99.90;;;;;;4229337;28;20044;-80
2023/08/14 00:41:03;;;;;;;3.42;2.47;;;15.90;99.90;;;;;;4229846;28;20073;-80
2023/08/14 00:43:04;;;;;;;4.40;2.60;;;15.90;99.90;;;;;;4229155;28;20047;-80
2023/08/14 00:45:06;;;;;;;6.90;2.90;;;15.90;99.90;;;;;;4230780;28;20048;-80
2023/08/14 00:47:08;;;;;;;6.20;3.78;;;15.80;99.90;;;;;;4230549;28;20055;-80
2023/08/14 00:49:08;;;;;;;5.78;2.88;;;15.80;99.90;;;;;;4228957;28;20047;-80
2023/08/14 00:51:09;;;;;;;5.57;3.28;;;15.80;99.90;;;;;;4230980;28;20043;-80
2023/08/14 00:53:12;;;;;;;4.10;2.80;;;15.80;99.90;;;;;;4230783;28;20090;-80
2023/08/14 00:55:22;;;;;;;5.25;3.08;;;15.80;99.90;;;;;;4230823;28;20064;-80
2023/08/14 00:57:23;;;;;;;5.72;3.08;;;15.80;99.90;;;;;;4230116;28;20463;-80
2023/08/14 00:59:23;;;;;;;7.47;3.10;;;15.70;99.90;;;;;;4229243;28;20044;-80
2023/08/14 01:01:24;;;;;;;8.02;2.80;;;15.70;99.90;;;;;;4229086;28;20075;-80
2023/08/14 01:03:25;;;;;;;4.80;3.20;;;15.70;99.90;;;;;;4229565;28;20040;-80
2023/08/14 01:05:26;;;;;;;4.25;3.28;;;15.70;99.90;;;;;;4230983;28;20053;-80
2023/08/14 01:07:26;;;;;;;5.75;3.20;;;15.70;99.90;;;;;;4230337;28;20043;-80
2023/08/14 01:09:27;;;;;;;5.60;3.03;;;15.70;99.90;;;;;;4230482;28;20057;-80
2023/08/14 01:11:46;;;;;;;7.05;3.50;;;15.60;99.90;;;;;;4230487;28;20130;-80
2023/08/14 01:13:52;;;;;;;8.77;3.50;;;15.60;99.90;;;;;;4230974;28;20437;-80
2023/08/14 01:15:57;;;;;;;5.82;3.22;;;15.60;99.90;;;;;;4230917;28;20040;-80
2023/08/14 01:18:00;;;;;;;5.70;3.78;;;15.60;99.90;;;;;;4230644;28;20054;-80
2023/08/14 01:20:04;;;;;;;4.30;3.10;;;15.50;99.90;;;;;;4229047;28;20047;-80
2023/08/14 01:22:10;;;;;;;4.90;2.90;;;15.60;99.90;;;;;;4229134;28;20064;-80
2023/08/14 01:24:39;;;;;;;4.72;3.05;;;15.50;99.90;;;;;;4230485;28;20050;-80
2023/08/14 01:26:39;;;;;;;3.88;2.95;;;15.50;99.90;;;;;;4228719;28;20084;-80
2023/08/14 01:28:40;;;;;;;6.15;2.58;;;15.50;99.90;;;;;;4229415;28;20584;-80
2023/08/14 01:30:41;;;;;;;6.90;3.17;;;15.50;99.90;;;;;;4229092;28;20407;-80
2023/08/14 01:32:42;;;;;;;5.78;2.90;;;15.50;99.90;;;;;;4229178;28;20036;-80
2023/08/14 01:34:44;;;;;;;3.80;2.75;;;15.50;99.90;;;;;;4229365;28;20131;-80
2023/08/14 01:36:44;;;;;;;5.97;3.20;;;15.50;99.90;;;;;;4230290;28;20089;-79
2023/08/14 01:38:54;;;;;;;4.60;2.80;;;15.50;99.90;;;;;;4229275;28;20039;-79
2023/08/14 01:41:08;;;;;;;5.72;3.03;;;15.50;99.90;;;;;;4229633;28;20055;-79
2023/08/14 01:43:21;;;;;;;6.65;3.78;;;15.40;99.90;;;;;;4229684;28;20097;-79
2023/08/14 01:45:23;;;;;;;4.18;2.75;;;15.40;99.90;;;;;;4229009;28;20055;-79
2023/08/14 01:47:27;;;;;;;4.18;2.90;;;15.40;99.90;;;;;;4228808;28;20051;-79
2023/08/14 01:49:30;;;;;;;5.63;2.85;;;15.30;99.90;;;;;;4230705;28;20050;-79
2023/08/14 01:51:32;;;;;;;7.03;3.35;;;15.30;99.90;;;;;;4212383;28;20079;-80
2023/08/14 01:53:34;;;;;;;6.22;3.13;;;15.30;99.90;;;;;;4229143;28;20117;-82
2023/08/14 01:55:34;;;;;;;9.43;3.67;;;15.30;99.90;;;;;;4231763;28;20120;-79
2023/08/14 01:57:35;;;;;;;7.15;3.25;;;15.30;99.90;;;;;;4233446;28;20047;-80
2023/08/14 01:59:42;;;;;;;7.45;3.72;;;15.30;99.90;;;;;;4233642;28;20047;-81
2023/08/14 02:01:43;;;;;;;4.85;3.50;;;15.30;99.90;;;;;;4231948;28;20566;-79
2023/08/14 02:03:43;;;;;;;5.80;3.50;;;15.30;99.90;;;;;;4232176;28;20044;-80
2023/08/14 02:05:44;;;;;;;7.13;3.17;;;15.30;99.90;;;;;;4232040;28;20055;-79
2023/08/14 02:07:45;;;;;;;4.10;3.00;;;15.30;99.90;;;;;;4231636;28;20086;-79
2023/08/14 02:09:46;;;;;;;5.95;3.00;;;15.30;99.90;;;;;;4232005;28;20082;-80
2023/08/14 02:11:46;;;;;;;6.65;3.10;;;15.20;99.90;;;;;;4233288;28;20044;-80
2023/08/14 02:13:47;;;;;;;5.05;3.10;;;15.20;99.90;;;;;;4232220;28;20104;-79
2023/08/14 02:15:48;;;;;;;7.78;3.67;;;15.20;99.90;;;;;;4232131;28;20047;-80
2023/08/14 02:17:49;;;;;;;5.22;3.10;;;15.20;99.90;;;;;;4232365;28;20079;-80
2023/08/14 02:19:50;;;;;;;4.78;3.08;;;15.20;99.90;;;;;;4233183;28;20039;-80
2023/08/14 02:21:51;;;;;;;5.15;2.85;;;15.20;99.90;;;;;;4214643;28;20055;-80
2023/08/14 02:23:51;;;;;;;7.13;3.22;;;15.20;99.90;;;;;;4231787;28;20044;-80
2023/08/14 02:25:55;;;;;;;5.53;2.88;;;15.20;99.90;;;;;;4231750;28;20043;-79
2023/08/14 02:27:56;;;;;;;5.72;2.45;;;15.20;99.90;;;;;;4214655;28;20557;-79
2023/08/14 02:29:57;;;;;;;6.20;3.38;;;15.10;99.90;;;;;;4233262;28;20083;-80
2023/08/14 02:31:57;;;;;;;5.68;3.33;;;15.20;99.90;;;;;;4231202;28;20054;-80
2023/08/14 02:34:00;;;;;;;10.98;3.72;;;15.10;99.90;;;;;;4232607;28;20035;-80
2023/08/14 02:36:01;;;;;;;4.63;3.03;;;15.10;99.90;;;;;;4231750;28;20119;-79
2023/08/14 02:38:06;;;;;;;8.35;4.00;;;15.10;99.90;;;;;;4231158;28;20073;-80
2023/08/14 02:40:07;;;;;;;4.18;2.75;;;15.10;99.90;;;;;;4231171;28;20054;-80
2023/08/14 02:42:09;;;;;;;4.50;3.08;;;15.10;99.90;;;;;;4231157;28;20446;-79
2023/08/14 02:44:09;;;;;;;9.40;2.83;;;15.10;99.90;;;;;;4232002;28;20492;-79
2023/08/14 02:46:10;;;;;;;7.20;3.38;;;15.10;99.90;;;;;;4232768;28;20055;-80
2023/08/14 02:48:11;;;;;;;5.43;2.67;;;15.10;99.90;;;;;;4214113;28;20143;-80
2023/08/14 02:50:11;;;;;;;4.63;2.88;;;15.10;99.90;;;;;;4214133;28;20056;-80
2023/08/14 02:52:12;;;;;;;7.00;3.55;;;15.00;99.90;;;;;;4214251;28;20055;-80
2023/08/14 02:54:13;;;;;;;6.65;3.00;;;15.00;99.90;;;;;;4231912;28;20073;-80
2023/08/14 02:56:13;;;;;;;6.30;3.40;;;15.00;99.90;;;;;;4231501;28;20113;-80
2023/08/14 02:58:14;;;;;;;6.07;3.28;;;15.00;99.90;;;;;;4232294;28;20048;-80
2023/08/14 03:00:15;;;;;;;7.53;3.40;;;15.00;99.90;;;;;;4232526;28;20047;-79
2023/08/14 03:02:15;;;;;;;8.82;3.45;;;15.00;99.90;;;;;;4231152;28;20047;-80
2023/08/14 03:04:17;;;;;;;10.80;4.13;;;15.00;99.90;;;;;;4232025;28;20044;-78
2023/08/14 03:06:18;;;;;;;8.60;3.85;;;15.00;99.90;;;;;;4232733;28;20035;-79
2023/08/14 03:08:19;;;;;;;8.77;4.35;;;15.00;99.90;;;;;;4232046;28;20043;-79
2023/08/14 03:10:20;;;;;;;7.57;4.10;;;14.90;99.90;;;;;;4235635;28;20118;-79
2023/08/14 03:12:21;;;;;;;5.28;4.00;;;14.90;99.90;;;;;;4234828;28;20040;-79
2023/08/14 03:14:21;;;;;;;8.43;4.35;;;16.40;99.90;;;;;;4233718;28;20514;-79
2023/08/14 03:16:22;;;;;;;8.25;4.78;;;14.90;99.90;;;;;;4233078;28;20079;-79
2023/08/14 03:18:23;;;;;;;6.25;3.63;;;14.90;99.90;;;;;;4232103;28;20056;-79
2023/08/14 03:20:23;;;;;;;5.97;3.97;;;14.90;99.90;;;;;;4232689;28;20122;-80
2023/08/14 03:22:24;;;;;;;11.65;4.68;;;14.90;99.90;;;;;;4232168;28;20090;-80
2023/08/14 03:24:25;;;;;;;7.20;3.90;;;14.90;99.90;;;;;;4232137;28;20046;-80
2023/08/14 03:26:26;;;;;;;9.57;4.35;;;14.90;99.90;;;;;;4232412;28;20087;-80
2023/08/14 03:28:27;;;;;;;5.85;3.88;;;14.90;99.90;;;;;;4231910;28;20038;-80
2023/08/14 03:30:28;;;;;;;9.48;3.97;;;14.90;99.90;;;;;;4232012;28;20047;-79
2023/08/14 03:32:29;;;;;;;8.88;3.55;;;14.90;99.90;;;;;;4231513;28;20042;-80
2023/08/14 03:34:29;;;;;;;5.22;3.72;;;14.90;99.90;;;;;;4230538;28;20104;-80
2023/08/14 03:36:30;;;;;;;7.38;4.47;;;14.90;99.90;;;;;;4230750;28;20534;-79
2023/08/14 03:38:31;;;;;;;7.53;4.15;;;14.80;99.90;;;;;;4232011;28;20055;-80
2023/08/14 03:40:32;;;;;;;9.07;3.90;;;14.80;99.90;;;;;;4232187;28;20040;-80
2023/08/14 03:42:32;;;;;;;7.15;3.80;;;14.80;99.90;;;;;;4230471;28;20056;-80
2023/08/14 03:44:33;;;;;;;8.52;4.05;;;14.80;99.90;;;;;;4230704;28;20051;-79
2023/08/14 03:46:33;;;;;;;6.75;4.05;;;14.80;99.90;;;;;;4230147;28;20051;-80
2023/08/14 03:48:34;;;;;;;7.57;4.82;;;14.80;99.90;;;;;;4231500;28;20040;-80
2023/08/14 03:50:35;;;;;;;8.85;4.18;;;14.70;99.90;;;;;;4229948;28;20055;-80
2023/08/14 03:52:35;;;;;;;10.68;5.15;;;14.70;99.90;;;;;;4230154;28;20127;-80
2023/08/14 03:54:36;;;;;;;7.45;4.50;;;14.70;99.90;;;;;;4230679;28;20048;-79
2023/08/14 03:56:37;;;;;;;7.75;4.10;;;14.70;99.90;;;;;;4230203;28;20044;-80
2023/08/14 03:58:38;;;;;;;7.95;4.03;;;14.70;99.90;;;;;;4229616;28;20406;-79
2023/08/14 04:00:38;;;;;;;8.27;4.00;;;14.70;99.90;;;;;;4230168;28;20110;-79
2023/08/14 04:02:40;;;;;;;9.88;4.93;;;14.70;99.90;;;;;;4230136;28;20043;-79
2023/08/14 04:04:40;;;;;;;8.13;4.55;;;14.70;99.90;;;;;;4229861;28;20051;-80
2023/08/14 04:06:42;;;;;;;7.40;4.45;;;14.70;99.90;;;;;;4229794;28;20565;-79
2023/08/14 04:08:43;;;;;;;12.73;5.03;;;14.70;99.90;;;;;;4230108;28;20487;-80
2023/08/14 04:10:43;;;;;;;10.07;4.63;;;14.70;99.90;;;;;;4231596;28;20047;-79
2023/08/14 04:12:45;;;;;;;10.23;4.85;;;14.70;99.90;;;;;;4230977;28;20054;-80
2023/08/14 04:14:49;;;;;;;8.73;4.40;;;14.70;99.90;;;;;;4231329;28;20130;-80
2023/08/14 04:16:50;;;;;;;9.13;4.68;;;14.70;99.90;;;;;;4231229;28;20056;-79
2023/08/14 04:18:50;;;;;;;6.75;4.40;;;14.70;99.90;;;;;;4228542;28;20360;-80
2023/08/14 04:20:51;;;;;;;11.55;5.13;;;14.70;99.90;;;;;;4230231;28;20044;-80
2023/08/14 04:22:52;;;;;;;11.82;5.40;;;14.80;99.90;;;;;;4229468;28;20130;-79
2023/08/14 04:24:52;;;;;;;6.68;4.75;;;14.90;99.90;;;;;;4230101;28;20031;-80
2023/08/14 04:26:53;;;;;;;9.95;4.65;;;14.70;99.90;;;;;;4229370;28;20141;-80
2023/08/14 04:28:54;;;;;;;10.95;5.20;;;14.70;99.90;;;;;;4229950;28;20043;-79
2023/08/14 04:30:55;;;;;;;11.30;5.03;;;14.70;99.90;;;;;;4231156;28;20100;-80
2023/08/14 04:32:55;;;;;;;15.40;5.97;;;14.80;99.90;;;;;;4229530;28;20491;-80
2023/08/14 04:34:56;;;;;;;7.68;5.07;;;14.80;99.90;;;;;;4231118;28;20560;-80
2023/08/14 04:36:57;;;;;;;9.23;4.80;;;14.80;99.90;;;;;;4211863;28;20725;-80
2023/08/14 04:38:58;;;;;;;10.80;5.82;;;14.80;99.90;;;;;;4229890;28;20055;-80
2023/08/14 04:40:59;;;;;;;10.20;5.80;;;14.80;99.90;;;;;;4229623;28;20100;-79
2023/08/14 04:43:00;;;;;;;12.43;5.65;;;14.80;99.90;;;;;;4230828;28;20480;-80
2023/08/14 04:45:01;;;;;;;12.13;5.82;;;14.80;99.90;;;;;;4229448;28;20039;-79
2023/08/14 04:47:02;;;;;;;12.88;5.75;;;14.80;99.90;;;;;;4212283;28;20059;-79
2023/08/14 04:49:04;;;;;;;11.50;6.22;;;14.80;99.90;;;;;;4229723;28;20399;-79
2023/08/14 04:51:06;;;;;;;10.05;5.57;;;14.80;99.90;;;;;;4229593;28;20052;-79
2023/08/14 04:53:06;;;;;;;12.13;6.38;;;14.80;99.90;;;;;;4230796;28;20062;-80
2023/08/14 04:55:07;;;;;;;11.10;5.70;;;14.90;99.90;;;;;;4212780;28;20052;-79
2023/08/14 04:57:08;;;;;;;10.48;5.47;;;14.90;99.90;;;;;;4229368;28;20051;-80
2023/08/14 04:59:08;;;;;;;13.05;6.30;;;15.00;99.90;;;;;;4230192;28;20036;-80
2023/08/14 05:01:09;;;;;;;10.25;5.32;;;15.00;99.90;;;;;;4230761;28;20142;-80
2023/08/14 05:03:10;;;;;;;10.75;5.70;;;14.90;99.90;;;;;;4229145;28;20082;-79
2023/08/14 05:05:11;;;;;;;11.18;5.80;;;15.10;99.90;;;;;;4229429;28;20047;-80
2023/08/14 05:07:11;;;;;;;10.45;5.22;;;15.20;99.90;;;;;;4230392;28;20426;-79
2023/08/14 05:09:12;;;;;;;11.82;5.60;;;15.20;99.90;;;;;;4229431;28;20052;-80
2023/08/14 05:11:13;;;;;;;8.95;5.40;;;15.30;99.90;;;;;;4212577;28;20044;-80
2023/08/14 05:13:13;;;;;;;8.38;4.85;;;15.40;99.90;;;;;;4211555;28;20040;-79
2023/08/14 05:15:14;;;;;;;13.00;5.05;;;15.40;99.90;;;;;;4229314;28;20478;-79
2023/08/14 05:17:15;;;;;;;11.55;4.88;;;15.50;99.90;;;;;;4211801;28;20393;-80
2023/08/14 05:19:15;;;;;;;9.95;5.93;;;15.60;99.90;;;;;;4230145;28;20126;-80
2023/08/14 05:21:16;;;;;;;13.80;5.55;;;15.60;99.90;;;;;;4230300;28;20399;-80
2023/08/14 05:23:17;;;;;;;10.95;5.53;;;15.60;99.90;;;;;;4228344;28;20495;-80
2023/08/14 05:25:18;;;;;;;8.65;4.68;;;15.70;99.90;;;;;;4230281;28;20089;-79
2023/08/14 05:27:20;;;;;;;10.13;5.85;;;15.70;99.90;;;;;;4229998;28;20043;-79
2023/08/14 05:29:21;;;;;;;8.93;4.68;;;15.70;99.90;;;;;;4230128;28;20051;-80
2023/08/14 05:31:21;;;;;;;9.45;4.88;;;15.80;99.90;;;;;;4214849;28;20047;-79
2023/08/14 05:33:22;;;;;;;9.82;5.13;;;15.90;99.90;;;;;;4231798;28;20062;-79
2023/08/14 05:35:24;;;;;;;8.45;5.03;;;15.90;99.90;;;;;;4215604;28;20052;-80
2023/08/14 05:37:24;;;;;;;8.55;4.68;;;16.00;99.90;;;;;;4233151;28;20480;-79
2023/08/14 05:39:27;;;;;;;9.38;4.80;;;16.00;99.90;;;;;;4232373;28;20058;-79
2023/08/14 05:41:27;;;;;;;11.35;4.78;;;16.00;99.90;;;;;;4231700;28;20487;-80
2023/08/14 05:43:29;;;;;;;10.32;4.53;;;16.10;99.90;;;;;;4232220;28;20385;-79
2023/08/14 05:45:34;;;;;;;7.63;3.83;;;16.10;99.90;;;;;;4232412;28;20459;-79
2023/08/14 05:47:35;;;;;;;11.00;4.47;;;16.20;99.90;;;;;;4232779;28;20043;-80
2023/08/14 05:49:35;;;;;;;8.32;3.85;;;16.30;99.90;;;;;;4233079;28;20071;-79
2023/08/14 05:51:36;;;;;;;8.10;3.30;;;16.30;99.90;;;;;;4232439;28;20047;-79
2023/08/14 05:53:37;;;;;;;10.65;4.13;;;16.40;99.90;;;;;;4233444;28;20050;-79
2023/08/14 05:55:39;;;;;;;6.78;3.88;;;16.40;99.90;;;;;;4232856;28;20115;-80
2023/08/14 05:57:40;;;;;;;10.80;3.58;;;16.50;99.90;;;;;;4233471;27;20214;-80
2023/08/14 05:59:40;;;;;;;10.88;4.22;;;16.60;99.90;;;;;;4233273;28;20426;-79
2023/08/14 06:01:41;;;;;;;7.05;3.92;;;16.60;99.90;;;;;;4215134;28;20044;-81
2023/08/14 06:03:42;;;;;;;9.30;4.13;;;16.60;99.90;;;;;;4232112;28;20047;-80
2023/08/14 06:05:43;;;;;;;8.48;4.25;;;16.70;99.90;;;;;;4233451;28;20048;-81
2023/08/14 06:07:43;;;;;;;17.17;5.07;;;16.70;99.90;;;;;;4231696;28;20057;-80
2023/08/14 06:09:45;;;;;;;7.22;3.42;;;16.70;99.90;;;;;;4215028;28;20048;-81
2023/08/14 06:11:48;;;;;;;10.00;3.78;;;16.80;99.90;;;;;;4233377;28;20388;-81
2023/08/14 06:13:49;;;;;;;10.07;3.95;;;16.80;99.90;;;;;;4231994;28;20048;-81
2023/08/14 06:15:50;;;;;;;8.93;3.83;;;16.90;99.90;;;;;;4232085;28;20131;-81
2023/08/14 06:17:51;;;;;;;8.40;3.55;;;16.90;99.90;;;;;;4214924;28;20051;-80
2023/08/14 06:19:52;;;;;;;9.63;3.83;;;17.00;99.90;;;;;;4231733;28;20108;-81
2023/08/14 06:21:54;;;;;;;10.65;3.90;;;17.00;99.90;;;;;;4230886;28;20088;-80
2023/08/14 06:23:54;;;;;;;9.20;3.78;;;17.10;99.90;;;;;;4233276;28;20398;-81
2023/08/14 06:25:56;;;;;;;6.45;3.83;;;17.10;99.90;;;;;;4232890;27;20139;-81
2023/08/14 06:27:57;;;;;;;9.27;3.40;;;17.20;99.90;;;;;;4231605;28;20500;-80
2023/08/14 06:29:58;;;;;;;11.23;3.58;;;17.20;99.90;;;;;;4214813;28;20052;-81
2023/08/14 06:31:58;;;;;;;5.53;3.08;;;17.20;99.90;;;;;;4231133;28;20483;-80
2023/08/14 06:33:59;;;;;;;10.52;4.53;;;17.30;99.90;;;;;;4232831;28;20517;-80
2023/08/14 06:36:00;;;;;;;4.80;3.22;;;17.40;99.90;;;;;;4231119;28;20132;-80
2023/08/14 06:38:00;;;;;;;5.15;2.95;;;17.40;99.90;;;;;;4214711;28;20055;-80
2023/08/14 06:40:03;;;;;;;7.80;3.58;;;17.50;99.90;;;;;;4232896;28;20039;-80
2023/08/14 06:42:04;;;;;;;6.03;3.03;;;17.50;99.90;;;;;;4230627;28;20055;-80
2023/08/14 06:44:08;;;;;;;8.13;3.60;;;17.60;99.90;;;;;;4241408;28;20111;-80
2023/08/14 06:46:09;;;;;;;12.30;3.88;;;17.60;99.90;;;;;;4242886;28;20040;-80
2023/08/14 06:48:10;;;;;;;6.00;3.92;;;17.60;99.90;;;;;;4233603;28;20120;-80
2023/08/14 06:50:12;;;;;;;5.25;3.00;;;17.60;99.90;;;;;;4232654;28;20075;-80
2023/08/14 06:52:13;;;;;;;9.43;3.53;;;17.70;99.90;;;;;;4233007;28;20073;-80
2023/08/14 06:54:14;;;;;;;6.93;3.55;;;17.70;99.90;;;;;;4215017;28;20040;-80
2023/08/14 06:56:14;;;;;;;7.03;3.80;;;17.70;99.90;;;;;;4233394;28;20119;-80
2023/08/14 06:58:15;;;;;;;10.60;3.58;;;17.70;99.90;;;;;;4232071;28;20052;-80
2023/08/14 07:00:16;;;;;;;5.97;3.53;;;17.70;99.90;;;;;;4231721;28;20526;-80
2023/08/14 07:02:17;;;;;;;10.75;3.35;;;17.80;99.90;;;;;;4232215;28;20051;-80
2023/08/14 07:04:18;;;;;;;5.63;2.88;;;17.80;99.90;;;;;;4232454;28;20488;-80
2023/08/14 07:06:18;;;;;;;8.13;3.30;;;17.80;99.90;;;;;;4232334;28;20043;-79
2023/08/14 07:08:19;;;;;;;9.85;3.22;;;17.80;99.90;;;;;;4231888;28;20066;-80
2023/08/14 07:10:21;;;;;;;7.78;3.13;;;17.90;99.90;;;;;;4231823;28;20038;-79
2023/08/14 07:12:22;;;;;;;7.40;3.20;;;17.90;99.90;;;;;;4231980;28;20046;-79
2023/08/14 07:14:23;;;;;;;5.25;3.20;;;17.90;99.90;;;;;;4230800;28;20054;-80
2023/08/14 07:16:23;;;;;;;7.78;3.20;;;18.00;99.90;;;;;;4230851;28;20503;-79
2023/08/14 07:18:24;;;;;;;5.43;3.03;;;18.10;99.90;;;;;;4231598;28;20104;-79
2023/08/14 07:20:26;;;;;;;9.63;3.70;;;18.20;99.90;;;;;;4232178;28;20092;-79
2023/08/14 07:22:27;;;;;;;5.95;2.95;;;18.30;99.90;;;;;;4231715;28;20127;-79
2023/08/14 07:24:27;;;;;;;5.03;2.78;;;18.50;99.90;;;;;;4230751;28;20043;-79
2023/08/14 07:26:28;;;;;;;7.35;3.05;;;18.60;99.90;;;;;;4231794;28;20083;-80
2023/08/14 07:28:29;;;;;;;11.82;3.53;;;18.70;99.90;;;;;;4230734;28;20379;-79
2023/08/14 07:30:29;;;;;;;7.90;3.60;;;18.80;99.90;;;;;;4231724;28;20043;-79
2023/08/14 07:32:30;;;;;;;5.15;2.55;;;18.90;99.90;;;;;;4231723;28;20046;-79
2023/08/14 07:34:31;;;;;;;4.20;2.83;;;19.10;99.90;;;;;;4231843;28;20052;-80
2023/08/14 07:36:32;;;;;;;6.68;2.97;;;19.10;99.90;;;;;;4232068;28;20047;-79
2023/08/14 07:38:33;;;;;;;10.93;2.95;;;19.20;99.90;;;;;;4230750;28;20557;-79
2023/08/14 07:40:34;;;;;;;5.28;2.75;;;19.30;99.90;;;;;;4213953;28;20044;-79
2023/08/14 07:42:34;;;;;;;5.38;2.58;;;19.40;99.90;;;;;;4230863;28;20048;-79
2023/08/14 07:44:35;;;;;;;7.95;2.40;;;19.50;99.90;;;;;;4231633;28;20050;-79
2023/08/14 07:46:36;;;;;;;4.88;2.25;;;19.60;99.90;;;;;;4232087;28;20058;-79
2023/08/14 07:48:36;;;;;;;4.07;2.40;;;19.60;99.90;;;;;;4238592;28;20059;-79
2023/08/14 07:50:37;;;;;;;8.23;2.08;;;19.70;99.90;;;;;;4239527;28;20064;-79
2023/08/14 07:52:38;;;;;;;7.40;2.40;;;20.60;99.90;;;;;;4215914;28;20047;-79
2023/08/14 07:54:39;;;;;;;7.13;2.40;;;19.90;99.90;;;;;;4230685;28;20081;-79
2023/08/14 07:56:40;;;;;;;5.53;2.92;;;19.90;99.90;;;;;;4231716;28;20043;-79
2023/08/14 07:58:41;;;;;;;8.02;2.00;;;20.00;99.90;;;;;;4231644;28;20111;-79
2023/08/14 08:00:42;;;;;;;7.00;2.35;;;20.00;99.90;;;;;;4231975;28;20054;-79
2023/08/14 08:02:43;;;;;;;5.28;2.55;;;20.00;99.90;;;;;;4231632;28;20445;-79
2023/08/14 08:04:44;;;;;;;8.18;2.55;;;20.00;99.90;;;;;;4213222;28;20044;-79
2023/08/14 08:06:45;;;;;;;5.15;2.83;;;20.10;99.90;;;;;;4231702;28;20036;-79
2023/08/14 08:08:45;;;;;;;4.93;2.30;;;20.10;99.90;;;;;;4231322;28;20043;-79
2023/08/14 08:10:46;;;;;;;8.90;3.28;;;20.10;99.90;;;;;;4230344;28;20070;-79
2023/08/14 08:12:47;;;;;;;5.57;2.55;;;20.10;99.90;;;;;;4231171;27;20040;-79
2023/08/14 08:14:47;;;;;;;9.38;2.50;;;20.10;99.90;;;;;;4230025;28;20035;-79
2023/08/14 08:16:49;;;;;;;7.45;2.90;;;20.10;99.90;;;;;;4213126;28;20081;-79
2023/08/14 08:18:49;;;;;;;14.55;2.60;;;20.10;99.90;;;;;;4229520;28;20610;-79
2023/08/14 08:20:50;;;;;;;7.85;3.33;;;20.10;99.90;;;;;;4231194;28;20043;-79
2023/08/14 08:22:51;;;;;;;5.22;2.30;;;20.10;99.90;;;;;;4229230;28;20086;-79
2023/08/14 08:24:51;;;;;;;8.55;3.67;;;20.20;99.90;;;;;;4231162;28;20544;-79
2023/08/14 08:26:52;;;;;;;6.47;3.35;;;20.20;99.90;;;;;;4229105;28;20063;-79
2023/08/14 08:28:53;;;;;;;11.02;2.97;;;20.20;99.90;;;;;;4229475;28;20105;-79
2023/08/14 08:30:53;;;;;;;5.28;2.60;;;20.30;99.90;;;;;;4229409;28;20407;-78
2023/08/14 08:32:54;;;;;;;6.32;2.60;;;20.40;99.90;;;;;;4229507;28;20521;-79
2023/08/14 08:34:55;;;;;;;5.63;2.70;;;20.50;99.90;;;;;;4229568;28;20047;-79
2023/08/14 08:36:56;;;;;;;7.78;3.00;;;20.50;99.90;;;;;;4229731;28;20399;-79
2023/08/14 08:38:56;;;;;;;10.68;2.47;;;20.70;99.90;;;;;;4228958;28;20048;-79
2023/08/14 08:41:01;;;;;;;9.73;2.33;;;20.80;99.90;;;;;;4231047;28;20388;-79
2023/08/14 08:43:02;;;;;;;7.40;2.38;;;20.90;99.90;;;;;;4229279;28;20537;-82
2023/08/14 08:45:05;;;;;;;8.13;2.50;;;21.10;99.90;;;;;;4229457;28;20411;-79
2023/08/14 08:47:10;;;;;;;6.85;2.40;;;21.20;99.90;;;;;;4229355;28;20036;-79
2023/08/14 08:49:11;;;;;;;7.30;2.47;;;21.30;99.90;;;;;;4229412;28;20522;-79
2023/08/14 08:51:13;;;;;;;7.28;2.35;;;21.50;99.90;;;;;;4229279;28;20440;-79
2023/08/14 08:53:14;;;;;;;5.70;2.50;;;21.50;99.90;;;;;;4228903;28;20115;-79
2023/08/14 08:55:15;;;;;;;4.25;2.03;;;21.50;99.90;;;;;;4229390;28;20097;-80
2023/08/14 08:57:18;;;;;;;5.45;2.03;;;21.60;99.90;;;;;;4229319;28;20051;-80
2023/08/14 08:59:19;;;;;;;4.93;1.60;;;21.60;99.90;;;;;;4229750;28;20044;-80
2023/08/14 09:01:20;;;;;;;5.18;1.75;;;21.60;99.90;;;;;;4231139;28;20031;-80
2023/08/14 09:03:22;;;;;;;6.43;2.08;;;21.00;99.90;;;;;;4230269;28;20046;-80
2023/08/14 09:05:23;;;;;;;10.35;2.00;;;21.60;99.90;;;;;;4228223;28;20051;-80
2023/08/14 09:07:24;;;;;;;4.47;1.95;;;21.70;99.90;;;;;;4229230;28;20051;-80
2023/08/14 09:09:25;;;;;;;3.15;1.50;;;21.80;99.90;;;;;;4229410;28;20043;-80
2023/08/14 09:11:27;;;;;;;5.30;1.60;;;21.90;99.90;;;;;;4229256;28;20104;-80
2023/08/14 09:13:28;;;;;;;6.00;1.83;;;22.10;99.90;;;;;;4228892;28;20048;-80
2023/08/14 09:15:28;;;;;;;2.88;1.25;;;22.10;99.90;;;;;;4212671;28;20055;-80
2023/08/14 09:17:29;;;;;;;3.72;1.48;;;22.20;99.90;;;;;;4228249;28;20091;-80
2023/08/14 09:19:30;;;;;;;4.10;1.50;;;22.40;99.90;;;;;;4229195;28;20122;-80
2023/08/14 09:21:30;;;;;;;3.05;1.35;;;22.40;99.90;;;;;;4229190;28;20491;-80
2023/08/14 09:23:32;;;;;;;4.78;2.05;;;22.50;99.90;;;;;;4230535;28;20389;-80
2023/08/14 09:25:33;;;;;;;3.40;1.10;;;22.30;99.90;;;;;;4229505;28;20122;-80
2023/08/14 09:27:34;;;;;;;3.95;1.27;;;22.20;99.90;;;;;;4229257;28;20139;-80
2023/08/14 09:29:35;;;;;;;4.90;1.95;;;22.20;99.90;;;;;;4230641;28;20048;-80
2023/08/14 09:31:36;;;;;;;5.13;1.45;;;22.20;99.90;;;;;;4230133;28;20181;-80
2023/08/14 09:33:38;;;;;;;2.92;1.23;;;22.50;99.90;;;;;;4229985;28;20050;-80
2023/08/14 09:35:39;;;;;;;5.57;1.15;;;22.80;99.90;;;;;;4230294;28;20127;-80
2023/08/14 09:37:40;;;;;;;4.53;1.20;;;23.10;99.90;;;;;;4230041;28;20395;-80
2023/08/14 09:39:41;;;;;;;3.85;1.00;;;23.30;99.90;;;;;;4228418;28;20102;-80
2023/08/14 09:41:47;;;;;;;3.85;1.45;;;23.40;99.90;;;;;;4229038;28;20128;-80
2023/08/14 09:43:47;;;;;;;3.33;1.10;;;23.60;99.90;;;;;;4228750;28;20048;-80
2023/08/14 09:45:48;;;;;;;3.30;1.10;;;23.70;99.90;;;;;;4229233;28;20415;-80
2023/08/14 09:47:50;;;;;;;4.90;1.88;;;23.90;99.90;;;;;;4230347;28;20047;-80
2023/08/14 09:49:53;;;;;;;1.88;1.17;;;24.20;99.90;;;;;;4228613;28;20047;-80
2023/08/14 09:51:56;;;;;;;6.45;1.98;;;24.20;99.90;;;;;;4230506;28;20410;-80
2023/08/14 09:53:57;;;;;;;3.35;1.33;;;24.30;99.90;;;;;;4230166;28;20523;-80
2023/08/14 09:55:59;;;;;;;3.65;1.10;;;24.40;99.90;;;;;;4211940;28;20440;-80
2023/08/14 09:57:59;;;;;;;4.72;1.85;;;24.60;99.90;;;;;;4228143;28;20392;-80
2023/08/14 10:00:00;;;;;;;3.53;1.00;;;24.50;99.90;;;;;;4229145;28;20051;-80
2023/08/14 10:02:03;;;;;;;2.53;1.17;;;24.40;99.90;;;;;;4230012;28;20054;-80
2023/08/14 10:04:04;;;;;;;2.17;1.08;;;24.30;99.90;;;;;;4229092;28;20052;-80
2023/08/14 10:06:09;;;;;;;3.25;1.00;;;24.50;99.90;;;;;;4230386;28;20047;-80
2023/08/14 10:08:12;;;;;;;3.42;1.20;;;24.60;99.90;;;;;;4229880;28;20104;-80
2023/08/14 10:10:14;;;;;;;2.42;0.80;;;24.70;99.90;;;;;;4228534;28;20059;-80
2023/08/14 10:12:16;;;;;;;6.15;1.63;;;24.70;99.90;;;;;;4228347;28;20112;-80
2023/08/14 10:14:22;;;;;;;3.40;1.08;;;24.80;99.90;;;;;;4230113;28;20199;-80
2023/08/14 10:16:26;;;;;;;3.67;0.70;;;24.80;99.90;;;;;;4228629;28;20050;-80
2023/08/14 10:18:29;;;;;;;3.45;0.80;;;25.20;99.90;;;;;;4231402;28;20146;-80
2023/08/14 10:20:36;;;;;;;3.03;1.00;;;25.40;99.90;;;;;;4233286;28;20509;-80
2023/08/14 10:22:39;;;;;;;2.65;1.02;;;25.70;99.90;;;;;;4231816;28;20055;-80
2023/08/14 10:24:41;;;;;;;1.52;0.70;;;26.10;99.90;;;;;;4231870;28;20581;-80
2023/08/14 10:26:44;;;;;;;4.43;1.13;;;26.50;99.90;;;;;;4233336;28;20125;-80
2023/08/14 10:28:45;;;;;;;17.63;1.60;;;26.50;99.90;;;;;;4231332;28;20108;-80
2023/08/14 10:30:46;;;;;;;1.30;0.70;;;26.50;99.90;;;;;;4233395;28;20048;-79